createdAt,value
2018-10-21T00:00:34.900Z,8.76
2018-10-21T00:01:35.073Z,8.80
2018-10-21T00:02:35.206Z,8.80
2018-10-21T00:03:35.338Z,8.76
2018-10-21T00:04:35.533Z,8.74
2018-10-21T00:05:35.673Z,8.74
2018-10-21T00:06:35.842Z,8.74
2018-10-21T00:07:35.934Z,8.76
2018-10-21T00:08:36.080Z,8.79
2018-10-21T00:09:36.160Z,8.81
2018-10-21T00:10:36.280Z,8.80
2018-10-21T00:11:36.360Z,8.81
2018-10-21T00:12:36.645Z,8.83
2018-10-21T00:13:37.064Z,8.85
2018-10-21T00:14:36.984Z,8.84
2018-10-21T00:15:37.474Z,8.82
2018-10-21T00:16:38.032Z,8.82
2018-10-21T00:17:37.807Z,8.83
2018-10-21T00:18:38.400Z,8.84
2018-10-21T00:19:38.517Z,8.83
2018-10-21T00:20:38.335Z,8.81
2018-10-21T00:21:38.950Z,8.83
2018-10-21T00:22:39.028Z,8.85
2018-10-21T00:23:39.119Z,8.85
2018-10-21T00:24:39.134Z,8.84
2018-10-21T00:25:39.217Z,8.83
2018-10-21T00:26:39.083Z,8.83
2018-10-21T00:27:39.374Z,8.81
2018-10-21T00:29:39.667Z,8.79
2018-10-21T00:30:39.945Z,8.81
2018-10-21T00:31:40.236Z,8.78
2018-10-21T00:32:40.528Z,8.71
2018-10-21T00:33:40.765Z,8.64
2018-10-21T00:34:41.053Z,8.60
2018-10-21T00:35:41.465Z,8.56
2018-10-21T00:36:41.736Z,8.50
2018-10-21T00:37:42.027Z,8.46
2018-10-21T00:38:42.510Z,8.40
2018-10-21T00:39:43.093Z,8.31
2018-10-21T00:40:42.874Z,8.26
2018-10-21T00:41:43.155Z,8.18
2018-10-21T00:42:43.553Z,8.10
2018-10-21T00:43:43.983Z,8.04
2018-10-21T00:44:44.322Z,8.00
2018-10-21T00:45:44.611Z,7.95
2018-10-21T00:46:44.940Z,7.91
2018-10-21T00:47:45.266Z,7.87
2018-10-21T00:48:45.746Z,7.81
2018-10-21T00:49:46.017Z,7.77
2018-10-21T00:50:46.292Z,7.72
2018-10-21T00:51:46.592Z,7.68
2018-10-21T00:52:46.889Z,7.63
2018-10-21T00:53:47.167Z,7.57
2018-10-21T00:54:47.486Z,7.54
2018-10-21T00:55:47.805Z,7.50
2018-10-21T00:56:48.305Z,7.47
2018-10-21T00:57:48.309Z,7.41
2018-10-21T00:58:48.375Z,7.37
2018-10-21T00:59:48.412Z,7.34
2018-10-21T01:00:48.503Z,7.30
2018-10-21T01:01:48.652Z,7.24
2018-10-21T01:02:48.842Z,7.20
2018-10-21T01:03:48.960Z,7.15
2018-10-21T01:04:49.080Z,7.10
2018-10-21T01:05:49.264Z,7.07
2018-10-21T01:06:49.436Z,7.02
2018-10-21T01:07:49.595Z,6.99
2018-10-21T01:08:49.793Z,6.95
2018-10-21T01:09:49.918Z,6.90
2018-10-21T01:10:50.091Z,6.85
2018-10-21T01:11:50.238Z,6.83
2018-10-21T01:12:50.389Z,6.79
2018-10-21T01:13:50.546Z,6.77
2018-10-21T01:14:50.726Z,6.76
2018-10-21T01:15:50.928Z,6.74
2018-10-21T01:16:51.111Z,6.70
2018-10-21T01:17:51.189Z,6.64
2018-10-21T01:18:51.356Z,6.63
2018-10-21T01:19:51.508Z,6.62
2018-10-21T01:20:51.629Z,6.58
2018-10-21T01:21:51.732Z,6.56
2018-10-21T01:22:51.912Z,6.53
2018-10-21T01:23:52.249Z,6.47
2018-10-21T01:24:52.353Z,6.42
2018-10-21T01:25:52.435Z,6.38
2018-10-21T01:26:52.519Z,6.37
2018-10-21T01:27:52.602Z,6.37
2018-10-21T01:28:52.699Z,6.34
2018-10-21T01:29:52.777Z,6.31
2018-10-21T01:30:52.863Z,6.28
2018-10-21T01:31:52.946Z,6.27
2018-10-21T01:32:53.015Z,6.23
2018-10-21T01:33:53.106Z,6.21
2018-10-21T01:34:53.203Z,6.18
2018-10-21T01:35:53.302Z,6.14
2018-10-21T01:36:53.523Z,6.14
2018-10-21T01:37:53.567Z,6.12
2018-10-21T01:38:53.574Z,6.10
2018-10-21T01:39:53.651Z,6.09
2018-10-21T01:41:54.042Z,6.10
2018-10-21T01:42:54.332Z,6.16
2018-10-21T01:43:54.313Z,6.19
2018-10-21T01:44:54.633Z,6.20
2018-10-21T01:45:54.892Z,6.18
2018-10-21T01:46:54.896Z,6.20
2018-10-21T01:47:55.296Z,6.23
2018-10-21T01:48:55.161Z,6.25
2018-10-21T01:49:55.688Z,6.25
2018-10-21T01:50:55.489Z,6.23
2018-10-21T01:51:55.877Z,6.22
2018-10-21T01:52:56.156Z,6.20
2018-10-21T01:53:56.468Z,6.16
2018-10-21T01:54:56.761Z,6.12
2018-10-21T01:55:57.104Z,6.08
2018-10-21T01:56:57.431Z,6.05
2018-10-21T01:57:57.680Z,6.04
2018-10-21T01:58:57.762Z,6.04
2018-10-21T01:59:58.067Z,6.04
2018-10-21T02:00:58.355Z,6.03
2018-10-21T02:01:58.781Z,6.05
2018-10-21T02:02:59.182Z,6.03
2018-10-21T02:03:59.204Z,6.03
2018-10-21T02:04:59.504Z,6.04
2018-10-21T02:05:59.792Z,6.06
2018-10-21T02:07:00.092Z,6.04
2018-10-21T02:08:00.353Z,6.03
2018-10-21T02:09:00.766Z,6.03
2018-10-21T02:10:01.069Z,6.04
2018-10-21T02:11:01.564Z,6.05
2018-10-21T02:12:01.919Z,6.03
2018-10-21T02:13:02.548Z,6.01
2018-10-21T02:14:02.312Z,6.00
2018-10-21T02:15:02.864Z,5.99
2018-10-21T02:16:03.339Z,5.96
2018-10-21T02:17:03.977Z,5.95
2018-10-21T02:18:04.140Z,5.94
2018-10-21T02:19:04.292Z,5.93
2018-10-21T02:20:04.447Z,5.92
2018-10-21T02:21:04.806Z,5.94
2018-10-21T02:22:04.909Z,5.94
2018-10-21T02:24:05.168Z,5.94
2018-10-21T02:25:05.351Z,5.94
2018-10-21T02:26:05.737Z,5.92
2018-10-21T02:27:05.872Z,5.91
2018-10-21T02:28:05.959Z,5.88
2018-10-21T02:29:06.053Z,5.88
2018-10-21T02:30:06.202Z,5.85
2018-10-21T02:31:06.427Z,5.82
2018-10-21T02:32:06.572Z,5.80
2018-10-21T02:33:06.792Z,5.79
2018-10-21T02:34:06.995Z,5.78
2018-10-21T02:35:07.104Z,5.76
2018-10-21T02:36:07.449Z,5.75
2018-10-21T02:37:07.512Z,5.71
2018-10-21T02:38:07.591Z,5.68
2018-10-21T02:39:07.748Z,5.64
2018-10-21T02:40:07.763Z,5.59
2018-10-21T02:41:07.845Z,5.57
2018-10-21T02:42:08.000Z,5.53
2018-10-21T02:43:07.797Z,5.53
2018-10-21T02:44:08.373Z,5.53
2018-10-21T02:45:08.905Z,5.54
2018-10-21T02:46:08.660Z,5.53
2018-10-21T02:47:09.348Z,5.50
2018-10-21T02:48:09.420Z,5.50
2018-10-21T02:49:09.447Z,5.51
2018-10-21T02:50:09.821Z,5.53
2018-10-21T02:51:09.844Z,5.53
2018-10-21T02:52:09.780Z,5.51
2018-10-21T02:53:10.056Z,5.51
2018-10-21T02:54:10.353Z,5.51
2018-10-21T02:55:10.706Z,5.50
2018-10-21T02:56:11.221Z,5.52
2018-10-21T02:57:11.221Z,5.55
2018-10-21T02:58:11.433Z,5.55
2018-10-21T02:59:11.802Z,5.54
2018-10-21T03:00:12.100Z,5.57
2018-10-21T03:01:12.436Z,5.61
2018-10-21T03:02:12.749Z,5.62
2018-10-21T03:03:13.091Z,5.63
2018-10-21T03:04:13.628Z,5.63
2018-10-21T03:05:13.550Z,5.64
2018-10-21T03:06:13.848Z,5.65
2018-10-21T03:07:14.149Z,5.66
2018-10-21T03:08:14.430Z,5.65
2018-10-21T03:09:14.875Z,5.66
2018-10-21T03:10:15.404Z,5.68
2018-10-21T03:11:15.188Z,5.67
2018-10-21T03:12:15.482Z,5.67
2018-10-21T03:13:15.779Z,5.65
2018-10-21T03:14:16.379Z,5.65
2018-10-21T03:15:16.363Z,5.67
2018-10-21T03:16:16.590Z,5.67
2018-10-21T03:17:16.901Z,5.67
2018-10-21T03:18:17.392Z,5.67
2018-10-21T03:19:17.764Z,5.67
2018-10-21T03:20:18.141Z,5.65
2018-10-21T03:21:18.866Z,5.62
2018-10-21T03:22:18.848Z,5.63
2018-10-21T03:23:18.990Z,5.65
2018-10-21T03:24:19.131Z,5.68
2018-10-21T03:25:19.255Z,5.75
2018-10-21T03:26:19.418Z,5.82
2018-10-21T03:27:19.676Z,5.95
2018-10-21T03:28:19.719Z,6.02
2018-10-21T03:29:19.885Z,6.02
2018-10-21T03:30:20.052Z,6.02
2018-10-21T03:31:20.226Z,6.01
2018-10-21T03:32:20.408Z,6.01
2018-10-21T03:33:20.794Z,5.99
2018-10-21T03:34:20.774Z,5.97
2018-10-21T03:35:20.939Z,5.95
2018-10-21T03:36:21.168Z,5.95
2018-10-21T03:37:21.300Z,5.94
2018-10-21T03:38:21.422Z,5.94
2018-10-21T03:39:21.487Z,5.94
2018-10-21T03:40:21.626Z,5.92
2018-10-21T03:41:21.707Z,5.90
2018-10-21T03:42:21.922Z,5.89
2018-10-21T03:43:21.994Z,5.88
2018-10-21T03:44:22.199Z,5.86
2018-10-21T03:45:22.293Z,5.83
2018-10-21T03:46:22.415Z,5.81
2018-10-21T03:47:22.562Z,5.76
2018-10-21T03:48:22.668Z,5.75
2018-10-21T03:49:22.786Z,5.78
2018-10-21T03:50:22.905Z,5.79
2018-10-21T03:51:23.142Z,5.78
2018-10-21T03:52:23.249Z,5.79
2018-10-21T03:53:23.019Z,5.78
2018-10-21T03:54:23.708Z,5.76
2018-10-21T03:55:23.813Z,5.76
2018-10-21T03:56:23.839Z,5.75
2018-10-21T03:57:23.950Z,5.74
2018-10-21T03:58:24.153Z,5.71
2018-10-21T03:59:24.060Z,5.71
2018-10-21T04:00:24.392Z,5.71
2018-10-21T04:01:24.705Z,5.71
2018-10-21T04:02:25.103Z,5.67
2018-10-21T04:03:25.394Z,5.67
2018-10-21T04:04:25.994Z,5.65
2018-10-21T04:05:25.934Z,5.61
2018-10-21T04:06:26.214Z,5.62
2018-10-21T04:07:26.501Z,5.59
2018-10-21T04:08:26.961Z,5.56
2018-10-21T04:09:27.287Z,5.54
2018-10-21T04:10:27.725Z,5.53
2018-10-21T04:11:28.132Z,5.51
2018-10-21T04:12:28.469Z,5.47
2018-10-21T04:13:28.777Z,5.45
2018-10-21T04:14:29.328Z,5.41
2018-10-21T04:15:29.133Z,5.40
2018-10-21T04:16:29.456Z,5.40
2018-10-21T04:17:29.905Z,5.39
2018-10-21T04:18:30.209Z,5.37
2018-10-21T04:19:30.503Z,5.34
2018-10-21T04:20:30.777Z,5.30
2018-10-21T04:21:31.079Z,5.28
2018-10-21T04:22:31.392Z,5.26
2018-10-21T04:23:31.877Z,5.25
2018-10-21T04:24:32.165Z,5.18
2018-10-21T04:25:32.831Z,5.14
2018-10-21T04:26:32.750Z,5.13
2018-10-21T04:27:33.310Z,5.11
2018-10-21T04:28:33.373Z,5.07
2018-10-21T04:29:33.530Z,5.05
2018-10-21T04:30:33.670Z,5.03
2018-10-21T04:31:34.005Z,5.01
2018-10-21T04:32:34.199Z,4.97
2018-10-21T04:33:34.648Z,4.97
2018-10-21T04:34:35.047Z,4.95
2018-10-21T04:35:35.342Z,4.94
2018-10-21T04:36:35.482Z,4.94
2018-10-21T04:37:35.673Z,4.91
2018-10-21T04:38:36.116Z,4.89
2018-10-21T04:39:36.463Z,4.87
2018-10-21T04:40:36.623Z,4.87
2018-10-21T04:41:36.732Z,4.85
2018-10-21T04:42:36.837Z,4.84
2018-10-21T04:43:36.620Z,4.83
2018-10-21T04:44:37.231Z,4.83
2018-10-21T04:45:37.356Z,4.82
2018-10-21T04:47:37.459Z,4.80
2018-10-21T04:48:37.544Z,4.79
2018-10-21T04:49:37.619Z,4.78
2018-10-21T04:50:37.749Z,4.76
2018-10-21T04:51:37.831Z,4.74
2018-10-21T04:53:37.946Z,4.71
2018-10-21T04:54:37.950Z,4.68
2018-10-21T04:55:38.627Z,4.68
2018-10-21T04:56:38.709Z,4.65
2018-10-21T04:57:38.799Z,4.65
2018-10-21T04:58:38.870Z,4.65
2018-10-21T04:59:38.968Z,4.64
2018-10-21T05:00:39.108Z,4.62
2018-10-21T05:01:39.152Z,4.63
2018-10-21T05:02:39.045Z,4.62
2018-10-21T05:03:39.667Z,4.64
2018-10-21T05:04:39.711Z,4.62
2018-10-21T05:05:39.570Z,4.63
2018-10-21T05:06:39.865Z,4.62
2018-10-21T05:07:40.241Z,4.62
2018-10-21T05:08:40.484Z,4.60
2018-10-21T05:09:41.031Z,4.61
2018-10-21T05:10:40.975Z,4.59
2018-10-21T05:11:41.267Z,4.58
2018-10-21T05:12:41.535Z,4.57
2018-10-21T05:13:41.949Z,4.56
2018-10-21T05:14:42.273Z,4.54
2018-10-21T05:15:42.923Z,4.53
2018-10-21T05:16:42.871Z,4.52
2018-10-21T05:17:43.100Z,4.51
2018-10-21T05:18:43.393Z,4.51
2018-10-21T05:19:43.687Z,4.50
2018-10-21T05:20:44.005Z,4.48
2018-10-21T05:21:44.293Z,4.49
2018-10-21T05:22:44.597Z,4.47
2018-10-21T05:23:44.931Z,4.48
2018-10-21T05:24:45.184Z,4.45
2018-10-21T05:25:45.779Z,4.44
2018-10-21T05:26:45.599Z,4.42
2018-10-21T05:27:45.892Z,4.40
2018-10-21T05:28:46.375Z,4.39
2018-10-21T05:29:46.691Z,4.39
2018-10-21T05:30:47.006Z,4.38
2018-10-21T05:31:47.584Z,4.38
2018-10-21T05:32:47.354Z,4.37
2018-10-21T05:33:47.729Z,4.36
2018-10-21T05:34:48.251Z,4.35
2018-10-21T05:35:48.373Z,4.33
2018-10-21T05:36:48.385Z,4.33
2018-10-21T05:37:48.503Z,4.32
2018-10-21T05:38:48.626Z,4.32
2018-10-21T05:39:48.767Z,4.30
2018-10-21T05:40:48.964Z,4.30
2018-10-21T05:41:49.143Z,4.29
2018-10-21T05:42:49.348Z,4.30
2018-10-21T05:43:49.771Z,4.30
2018-10-21T05:44:49.958Z,4.31
2018-10-21T05:45:50.106Z,4.30
2018-10-21T05:46:50.405Z,4.31
2018-10-21T05:47:50.670Z,4.32
2018-10-21T05:48:50.849Z,4.32
2018-10-21T05:49:50.959Z,4.31
2018-10-21T05:50:51.056Z,4.31
2018-10-21T05:51:51.164Z,4.31
2018-10-21T05:52:51.270Z,4.30
2018-10-21T05:53:51.400Z,4.30
2018-10-21T05:54:51.506Z,4.29
2018-10-21T05:55:51.675Z,4.30
2018-10-21T05:56:51.782Z,4.28
2018-10-21T05:57:51.955Z,4.28
2018-10-21T05:58:52.037Z,4.27
2018-10-21T05:59:52.208Z,4.27
2018-10-21T06:00:52.332Z,4.26
2018-10-21T06:01:52.463Z,4.25
2018-10-21T06:02:52.616Z,4.26
2018-10-21T06:03:52.642Z,4.24
2018-10-21T06:04:52.729Z,4.23
2018-10-21T06:05:53.235Z,4.22
2018-10-21T06:06:53.324Z,4.21
2018-10-21T06:07:53.431Z,4.19
2018-10-21T06:08:53.579Z,4.19
2018-10-21T06:09:53.796Z,4.18
2018-10-21T06:10:53.840Z,4.17
2018-10-21T06:11:53.967Z,4.16
2018-10-21T06:12:54.013Z,4.16
2018-10-21T06:13:53.946Z,4.14
2018-10-21T06:14:54.388Z,4.13
2018-10-21T06:15:54.815Z,4.13
2018-10-21T06:16:55.125Z,4.13
2018-10-21T06:17:55.075Z,4.14
2018-10-21T06:18:55.365Z,4.16
2018-10-21T06:19:55.443Z,4.18
2018-10-21T06:20:55.925Z,4.23
2018-10-21T06:21:55.793Z,4.27
2018-10-21T06:22:56.133Z,4.32
2018-10-21T06:23:56.553Z,4.36
2018-10-21T06:24:56.837Z,4.42
2018-10-21T06:25:57.470Z,4.46
2018-10-21T06:26:57.405Z,4.49
2018-10-21T06:27:57.800Z,4.53
2018-10-21T06:29:58.127Z,4.58
2018-10-21T06:30:58.466Z,4.66
2018-10-21T06:31:58.778Z,4.70
2018-10-21T06:32:59.227Z,4.71
2018-10-21T06:33:59.470Z,4.74
2018-10-21T06:34:59.814Z,4.78
2018-10-21T06:36:00.445Z,4.82
2018-10-21T06:37:00.274Z,4.88
2018-10-21T06:38:00.540Z,4.94
2018-10-21T06:39:01.014Z,5.00
2018-10-21T06:40:00.956Z,5.07
2018-10-21T06:41:01.110Z,5.14
2018-10-21T06:42:01.194Z,5.21
2018-10-21T06:43:01.799Z,5.29
2018-10-21T06:44:01.847Z,5.36
2018-10-21T06:45:02.190Z,5.44
2018-10-21T06:46:02.306Z,5.51
2018-10-21T06:47:02.162Z,5.57
2018-10-21T06:48:02.791Z,5.64
2018-10-21T06:49:02.603Z,5.70
2018-10-21T06:50:03.355Z,5.76
2018-10-21T06:51:03.445Z,5.82
2018-10-21T06:52:03.577Z,5.89
2018-10-21T06:53:03.759Z,5.96
2018-10-21T06:54:03.919Z,6.02
2018-10-21T06:55:06.847Z,6.08
2018-10-21T06:56:04.503Z,6.15
2018-10-21T06:57:04.752Z,6.21
2018-10-21T06:58:04.842Z,6.27
2018-10-21T06:59:05.047Z,6.31
2018-10-21T07:00:05.228Z,6.35
2018-10-21T07:01:05.148Z,6.40
2018-10-21T07:02:05.980Z,6.46
2018-10-21T07:03:06.152Z,6.51
2018-10-21T07:04:06.387Z,6.57
2018-10-21T07:05:06.562Z,6.63
2018-10-21T07:06:06.913Z,6.68
2018-10-21T07:07:06.914Z,6.73
2018-10-21T07:08:07.073Z,6.79
2018-10-21T07:09:07.290Z,6.84
2018-10-21T07:10:07.545Z,6.89
2018-10-21T07:11:07.561Z,6.94
2018-10-21T07:12:07.539Z,7.11
2018-10-21T07:13:08.025Z,7.11
2018-10-21T07:14:08.482Z,7.14
2018-10-21T07:15:08.830Z,7.17
2018-10-21T07:16:09.778Z,7.22
2018-10-21T07:17:09.720Z,7.27
2018-10-21T07:18:09.782Z,7.32
2018-10-21T07:19:09.574Z,7.36
2018-10-21T07:20:09.865Z,7.40
2018-10-21T07:21:10.235Z,7.44
2018-10-21T07:22:10.678Z,7.48
2018-10-21T07:23:10.896Z,7.51
2018-10-21T07:24:11.419Z,7.55
2018-10-21T07:25:11.209Z,7.58
2018-10-21T07:26:11.774Z,7.61
2018-10-21T07:27:11.547Z,7.65
2018-10-21T07:28:11.988Z,7.70
2018-10-21T07:29:12.331Z,7.74
2018-10-21T07:30:12.878Z,7.79
2018-10-21T07:31:12.702Z,7.96
2018-10-21T07:32:13.012Z,7.97
2018-10-21T07:33:13.298Z,7.99
2018-10-21T07:34:13.791Z,8.02
2018-10-21T07:35:14.348Z,8.19
2018-10-21T07:36:14.413Z,8.26
2018-10-21T07:37:14.271Z,8.28
2018-10-21T07:38:14.551Z,8.31
2018-10-21T07:39:14.854Z,8.35
2018-10-21T07:40:15.527Z,8.41
2018-10-21T07:41:15.276Z,8.48
2018-10-21T07:42:15.593Z,8.55
2018-10-21T07:43:15.897Z,8.86
2018-10-21T07:44:16.279Z,8.85
2018-10-21T07:45:16.877Z,9.00
2018-10-21T07:46:17.133Z,9.02
2018-10-21T07:47:17.360Z,9.05
2018-10-21T07:48:17.671Z,9.18
2018-10-21T07:49:18.285Z,9.23
2018-10-21T07:50:18.791Z,9.25
2018-10-21T07:51:18.952Z,9.30
2018-10-21T07:52:19.141Z,9.35
2018-10-21T07:53:19.535Z,9.41
2018-10-21T07:54:19.707Z,9.70
2018-10-21T07:55:19.946Z,9.78
2018-10-21T07:56:20.042Z,9.81
2018-10-21T07:57:20.177Z,9.99
2018-10-21T07:58:20.399Z,10.00
2018-10-21T07:59:20.565Z,10.03
2018-10-21T08:00:20.743Z,10.24
2018-10-21T08:01:21.029Z,10.36
2018-10-21T08:02:21.055Z,10.45
2018-10-21T08:03:21.182Z,10.58
2018-10-21T08:04:21.291Z,10.69
2018-10-21T08:05:21.395Z,10.81
2018-10-21T08:06:21.807Z,10.88
2018-10-21T08:07:22.203Z,10.91
2018-10-21T08:08:22.569Z,11.15
2018-10-21T08:09:22.715Z,11.31
2018-10-21T08:10:23.814Z,11.34
2018-10-21T08:11:23.812Z,11.37
2018-10-21T08:12:24.223Z,11.66
2018-10-21T08:13:23.687Z,11.83
2018-10-21T08:14:24.092Z,12.01
2018-10-21T08:15:24.326Z,12.07
2018-10-21T08:16:24.352Z,12.50
2018-10-21T08:17:24.394Z,12.58
2018-10-21T08:18:24.705Z,13.05
2018-10-21T08:19:24.986Z,13.40
2018-10-21T08:20:25.613Z,13.75
2018-10-21T08:21:25.443Z,14.05
2018-10-21T08:22:25.883Z,14.30
2018-10-21T08:23:26.193Z,14.38
2018-10-21T08:24:26.753Z,14.43
2018-10-21T08:25:26.528Z,14.66
2018-10-21T08:26:27.050Z,14.77
2018-10-21T08:27:27.014Z,14.89
2018-10-21T08:28:27.128Z,14.94
2018-10-21T08:29:27.481Z,15.00
2018-10-21T08:30:27.770Z,15.08
2018-10-21T08:31:28.090Z,15.26
2018-10-21T08:32:28.381Z,15.40
2018-10-21T08:33:28.673Z,15.52
2018-10-21T08:34:28.998Z,15.58
2018-10-21T08:35:29.409Z,15.62
2018-10-21T08:36:29.740Z,15.63
2018-10-21T08:37:30.375Z,15.68
2018-10-21T08:38:30.185Z,15.84
2018-10-21T08:39:30.476Z,15.92
2018-10-21T08:40:30.768Z,15.95
2018-10-21T08:41:31.189Z,16.02
2018-10-21T08:42:31.534Z,15.96
2018-10-21T08:43:31.904Z,16.01
2018-10-21T08:44:32.267Z,16.17
2018-10-21T08:45:32.630Z,16.12
2018-10-21T08:46:33.068Z,16.07
2018-10-21T08:47:33.627Z,16.01
2018-10-21T08:48:33.845Z,15.98
2018-10-21T08:49:34.045Z,15.84
2018-10-21T08:50:34.184Z,15.65
2018-10-21T08:51:34.381Z,15.41
2018-10-21T08:52:34.553Z,15.20
2018-10-21T08:53:34.797Z,15.02
2018-10-21T08:54:34.931Z,14.82
2018-10-21T08:55:35.095Z,14.67
2018-10-21T08:56:35.306Z,14.65
2018-10-21T08:57:35.473Z,14.66
2018-10-21T08:58:35.707Z,14.80
2018-10-21T08:59:35.924Z,14.99
2018-10-21T09:00:36.076Z,15.32
2018-10-21T09:01:36.266Z,15.64
2018-10-21T09:02:36.413Z,15.91
2018-10-21T09:03:36.537Z,16.21
2018-10-21T09:04:36.681Z,16.41
2018-10-21T09:05:36.823Z,16.63
2018-10-21T09:06:36.966Z,16.73
2018-10-21T09:07:37.129Z,16.79
2018-10-21T09:08:37.306Z,16.74
2018-10-21T09:09:37.368Z,16.27
2018-10-21T09:10:37.618Z,15.76
2018-10-21T09:11:37.610Z,15.46
2018-10-21T09:12:37.945Z,15.20
2018-10-21T09:13:38.114Z,15.01
2018-10-21T09:14:38.202Z,14.87
2018-10-21T09:15:38.288Z,14.71
2018-10-21T09:16:38.168Z,14.61
2018-10-21T09:17:38.741Z,14.51
2018-10-21T09:18:39.033Z,14.45
2018-10-21T09:19:39.287Z,14.40
2018-10-21T09:20:39.238Z,14.39
2018-10-21T09:21:39.574Z,14.29
2018-10-21T09:22:40.019Z,14.16
2018-10-21T09:23:40.525Z,14.07
2018-10-21T09:24:41.082Z,14.08
2018-10-21T09:25:40.870Z,14.06
2018-10-21T09:26:41.225Z,13.92
2018-10-21T09:27:41.832Z,13.80
2018-10-21T09:28:41.855Z,13.67
2018-10-21T09:29:42.421Z,13.54
2018-10-21T09:30:42.235Z,13.49
2018-10-21T09:31:42.517Z,13.43
2018-10-21T09:32:43.044Z,13.36
2018-10-21T09:33:42.904Z,13.35
2018-10-21T09:34:43.245Z,13.31
2018-10-21T09:35:43.675Z,13.31
2018-10-21T09:36:43.977Z,13.31
2018-10-21T09:37:44.393Z,13.26
2018-10-21T09:38:44.359Z,13.24
2018-10-21T09:39:44.656Z,13.22
2018-10-21T09:40:44.961Z,13.19
2018-10-21T09:41:45.241Z,13.19
2018-10-21T09:42:45.583Z,13.19
2018-10-21T09:43:45.970Z,13.17
2018-10-21T09:44:46.253Z,13.18
2018-10-21T09:45:46.548Z,13.23
2018-10-21T09:46:46.846Z,13.29
2018-10-21T09:47:47.153Z,13.33
2018-10-21T09:48:47.512Z,13.32
2018-10-21T09:49:47.781Z,13.29
2018-10-21T09:50:48.263Z,13.28
2018-10-21T09:51:48.920Z,13.27
2018-10-21T09:52:49.108Z,13.29
2018-10-21T09:53:49.266Z,13.31
2018-10-21T09:54:49.431Z,13.33
2018-10-21T09:55:49.573Z,13.37
2018-10-21T09:56:49.734Z,13.51
2018-10-21T09:57:49.847Z,13.55
2018-10-21T09:58:50.056Z,13.49
2018-10-21T09:59:50.208Z,13.46
2018-10-21T10:00:50.400Z,13.44
2018-10-21T10:01:50.672Z,13.44
2018-10-21T10:02:51.014Z,13.42
2018-10-21T10:04:51.483Z,13.44
2018-10-21T10:05:51.703Z,13.45
2018-10-21T10:06:51.852Z,13.46
2018-10-21T10:07:52.046Z,13.47
2018-10-21T10:08:52.463Z,13.49
2018-10-21T10:09:52.546Z,13.48
2018-10-21T10:10:52.729Z,13.51
2018-10-21T10:11:52.804Z,13.54
2018-10-21T10:12:52.893Z,13.55
2018-10-21T10:13:52.993Z,13.58
2018-10-21T10:14:53.091Z,13.70
2018-10-21T10:15:53.213Z,13.72
2018-10-21T10:16:53.297Z,13.71
2018-10-21T10:17:53.387Z,13.73
2018-10-21T10:18:53.481Z,13.83
2018-10-21T10:19:53.785Z,13.97
2018-10-21T10:20:53.990Z,13.95
2018-10-21T10:21:54.001Z,13.90
2018-10-21T10:22:54.037Z,13.92
2018-10-21T10:23:54.310Z,13.94
2018-10-21T10:24:54.230Z,13.98
2018-10-21T10:25:54.188Z,14.02
2018-10-21T10:26:54.465Z,13.95
2018-10-21T10:27:55.396Z,13.91
2018-10-21T10:28:55.215Z,13.94
2018-10-21T10:29:55.701Z,14.04
2018-10-21T10:30:56.008Z,14.09
2018-10-21T10:31:56.355Z,14.17
2018-10-21T10:32:56.676Z,14.18
2018-10-21T10:33:57.022Z,14.13
2018-10-21T10:34:57.412Z,14.12
2018-10-21T10:35:57.784Z,14.15
2018-10-21T10:36:58.227Z,14.21
2018-10-21T10:37:58.329Z,14.30
2018-10-21T10:38:58.121Z,14.37
2018-10-21T10:39:58.485Z,14.46
2018-10-21T10:40:58.995Z,14.49
2018-10-21T10:41:58.861Z,14.59
2018-10-21T10:42:59.100Z,14.77
2018-10-21T10:43:59.492Z,15.11
2018-10-21T10:44:59.760Z,15.32
2018-10-21T10:46:00.204Z,15.64
2018-10-21T10:47:00.564Z,16.11
2018-10-21T10:48:00.871Z,16.56
2018-10-21T10:49:01.244Z,17.02
2018-10-21T10:50:01.933Z,17.33
2018-10-21T10:51:02.252Z,17.55
2018-10-21T10:52:02.595Z,17.70
2018-10-21T10:53:02.958Z,17.91
2018-10-21T10:54:03.719Z,18.09
2018-10-21T10:55:03.964Z,18.07
2018-10-21T10:56:04.090Z,17.96
2018-10-21T10:57:04.271Z,17.88
2018-10-21T10:58:04.629Z,17.77
2018-10-21T10:59:04.750Z,17.76
2018-10-21T11:00:05.033Z,18.03
2018-10-21T11:01:05.303Z,18.06
2018-10-21T11:02:05.452Z,17.94
2018-10-21T11:03:05.626Z,17.63
2018-10-21T11:04:05.764Z,17.90
2018-10-21T11:05:06.194Z,18.00
2018-10-21T11:06:06.054Z,17.95
2018-10-21T11:07:06.307Z,17.91
2018-10-21T11:08:06.452Z,18.10
2018-10-21T11:09:06.844Z,17.92
2018-10-21T11:10:07.212Z,17.60
2018-10-21T11:11:07.209Z,17.55
2018-10-21T11:12:07.325Z,17.64
2018-10-21T11:13:07.466Z,17.79
2018-10-21T11:14:07.486Z,17.53
2018-10-21T11:15:07.634Z,17.38
2018-10-21T11:16:07.948Z,17.29
2018-10-21T11:17:07.939Z,17.30
2018-10-21T11:18:08.546Z,17.35
2018-10-21T11:19:08.759Z,17.41
2018-10-21T11:20:08.465Z,17.37
2018-10-21T11:21:09.055Z,17.29
2018-10-21T11:22:09.167Z,17.27
2018-10-21T11:23:08.947Z,17.24
2018-10-21T11:24:09.467Z,17.27
2018-10-21T11:25:09.756Z,17.51
2018-10-21T11:26:09.802Z,17.71
2018-10-21T11:27:09.629Z,17.79
2018-10-21T11:28:10.006Z,17.89
2018-10-21T11:29:10.570Z,18.03
2018-10-21T11:30:10.444Z,18.18
2018-10-21T11:31:10.870Z,18.22
2018-10-21T11:32:11.067Z,18.29
2018-10-21T11:33:11.503Z,18.24
2018-10-21T11:34:11.865Z,18.19
2018-10-21T11:35:12.122Z,18.11
2018-10-21T11:36:12.426Z,18.11
2018-10-21T11:37:12.955Z,18.01
2018-10-21T11:38:13.132Z,17.89
2018-10-21T11:39:13.425Z,17.82
2018-10-21T11:40:13.876Z,17.83
2018-10-21T11:41:14.131Z,17.83
2018-10-21T11:42:14.452Z,17.79
2018-10-21T11:43:14.842Z,17.72
2018-10-21T11:44:15.022Z,17.72
2018-10-21T11:45:15.627Z,17.66
2018-10-21T11:46:15.507Z,17.62
2018-10-21T11:47:15.735Z,17.69
2018-10-21T11:48:16.029Z,17.72
2018-10-21T11:49:16.391Z,17.79
2018-10-21T11:50:16.933Z,17.90
2018-10-21T11:51:17.077Z,18.01
2018-10-21T11:52:17.017Z,18.17
2018-10-21T11:53:17.144Z,18.38
2018-10-21T11:54:17.441Z,18.56
2018-10-21T11:55:18.075Z,18.62
2018-10-21T11:56:17.752Z,18.63
2018-10-21T11:57:18.316Z,18.79
2018-10-21T11:58:18.680Z,18.88
2018-10-21T11:59:18.752Z,19.09
2018-10-21T12:00:18.871Z,19.20
2018-10-21T12:01:19.101Z,19.33
2018-10-21T12:02:19.227Z,19.35
2018-10-21T12:03:19.470Z,19.60
2018-10-21T12:04:19.641Z,19.75
2018-10-21T12:05:19.885Z,19.95
2018-10-21T12:06:20.101Z,20.22
2018-10-21T12:07:20.338Z,20.51
2018-10-21T12:08:20.480Z,20.60
2018-10-21T12:09:20.632Z,20.87
2018-10-21T12:10:20.809Z,21.10
2018-10-21T12:11:21.088Z,21.19
2018-10-21T12:12:21.371Z,21.42
2018-10-21T12:13:21.559Z,21.67
2018-10-21T12:14:21.741Z,21.86
2018-10-21T12:15:21.918Z,21.81
2018-10-21T12:16:22.282Z,22.12
2018-10-21T12:17:22.451Z,22.21
2018-10-21T12:18:22.583Z,22.26
2018-10-21T12:19:22.705Z,22.36
2018-10-21T12:20:22.806Z,22.39
2018-10-21T12:21:22.933Z,22.47
2018-10-21T12:22:23.125Z,22.61
2018-10-21T12:23:23.251Z,22.78
2018-10-21T12:24:23.360Z,22.93
2018-10-21T12:25:23.571Z,23.11
2018-10-21T12:26:23.626Z,23.07
2018-10-21T12:27:23.736Z,23.13
2018-10-21T12:28:23.858Z,23.13
2018-10-21T12:29:23.929Z,23.14
2018-10-21T12:30:24.028Z,23.28
2018-10-21T12:31:24.152Z,23.39
2018-10-21T12:32:24.205Z,23.51
2018-10-21T12:33:24.256Z,23.46
2018-10-21T12:34:24.277Z,23.47
2018-10-21T12:35:24.284Z,23.40
2018-10-21T12:36:24.984Z,23.34
2018-10-21T12:37:24.835Z,23.33
2018-10-21T12:38:25.190Z,23.46
2018-10-21T12:39:25.694Z,23.59
2018-10-21T12:40:25.948Z,23.66
2018-10-21T12:41:26.379Z,23.59
2018-10-21T12:42:26.663Z,23.46
2018-10-21T12:43:27.031Z,23.38
2018-10-21T12:44:27.413Z,23.36
2018-10-21T12:45:27.848Z,23.45
2018-10-21T12:46:28.223Z,23.47
2018-10-21T12:47:28.509Z,23.44
2018-10-21T12:48:28.802Z,23.61
2018-10-21T12:49:29.193Z,23.61
2018-10-21T12:51:29.671Z,23.73
2018-10-21T12:52:29.953Z,24.09
2018-10-21T12:53:30.281Z,24.12
2018-10-21T12:54:30.590Z,24.10
2018-10-21T12:55:30.641Z,24.07
2018-10-21T12:56:30.901Z,24.03
2018-10-21T12:57:31.232Z,24.21
2018-10-21T12:58:31.507Z,24.35
2018-10-21T12:59:31.749Z,23.72
2018-10-21T13:00:32.005Z,23.62
2018-10-21T13:01:32.339Z,23.68
2018-10-21T13:02:32.592Z,23.70
2018-10-21T13:03:32.864Z,23.63
2018-10-21T13:04:33.432Z,23.61
2018-10-21T13:05:33.403Z,23.62
2018-10-21T13:06:34.031Z,23.55
2018-10-21T13:07:34.133Z,23.62
2018-10-21T13:08:34.279Z,23.54
2018-10-21T13:09:34.405Z,23.69
2018-10-21T13:10:34.498Z,23.52
2018-10-21T13:11:34.619Z,23.33
2018-10-21T13:12:34.698Z,23.25
2018-10-21T13:13:34.827Z,23.24
2018-10-21T13:14:35.161Z,23.30
2018-10-21T13:15:35.352Z,23.39
2018-10-21T13:16:35.530Z,23.50
2018-10-21T13:17:35.654Z,23.12
2018-10-21T13:18:35.808Z,23.35